createdAt,value
2018-08-24T00:00:21.291Z,74.72
2018-08-24T00:01:21.247Z,74.35
2018-08-24T00:02:21.255Z,75.15
2018-08-24T00:03:21.248Z,75.96
2018-08-24T00:04:21.271Z,76.16
2018-08-24T00:05:21.193Z,76.12
2018-08-24T00:06:21.245Z,75.52
2018-08-24T00:07:21.225Z,75.05
2018-08-24T00:08:21.179Z,74.45
2018-08-24T00:09:21.180Z,75.22
2018-08-24T00:10:21.176Z,74.85
2018-08-24T00:11:21.142Z,74.95
2018-08-24T00:12:21.207Z,74.95
2018-08-24T00:13:21.112Z,74.52
2018-08-24T00:14:21.119Z,76.16
2018-08-24T00:15:21.137Z,74.85
2018-08-24T00:16:21.098Z,76.46
2018-08-24T00:17:21.096Z,75.96
2018-08-24T00:18:21.102Z,76.06
2018-08-24T00:19:21.048Z,75.26
2018-08-24T00:20:21.049Z,75.35
2018-08-24T00:21:21.046Z,76.06
2018-08-24T00:22:21.020Z,75.66
2018-08-24T00:23:20.996Z,76.16
2018-08-24T00:24:20.982Z,75.32
2018-08-24T00:25:21.021Z,75.22
2018-08-24T00:26:20.958Z,75.02
2018-08-24T00:27:20.976Z,75.62
2018-08-24T00:28:20.938Z,76.03
2018-08-24T00:29:20.927Z,75.42
2018-08-24T00:30:20.925Z,74.92
2018-08-24T00:31:20.918Z,74.92
2018-08-24T00:32:20.921Z,75.42
2018-08-24T00:33:20.923Z,75.02
2018-08-24T00:34:20.881Z,75.12
2018-08-24T00:35:20.862Z,74.52
2018-08-24T00:36:20.895Z,74.62
2018-08-24T00:37:20.898Z,74.68
2018-08-24T00:38:20.896Z,74.58
2018-08-24T00:39:20.820Z,74.28
2018-08-24T00:40:20.810Z,74.38
2018-08-24T00:41:20.848Z,74.58
2018-08-24T00:42:20.796Z,75.18
2018-08-24T00:43:20.772Z,74.68
2018-08-24T00:44:20.836Z,74.55
2018-08-24T00:45:20.747Z,74.68
2018-08-24T00:46:20.744Z,74.35
2018-08-24T00:47:20.743Z,74.48
2018-08-24T00:48:20.787Z,74.48
2018-08-24T00:49:20.754Z,74.95
2018-08-24T00:50:20.751Z,76.05
2018-08-24T00:51:20.713Z,76.19
2018-08-24T00:52:20.672Z,76.19
2018-08-24T00:53:20.656Z,76.56
2018-08-24T00:54:20.656Z,76.09
2018-08-24T00:55:20.675Z,76.39
2018-08-24T00:56:20.628Z,76.39
2018-08-24T00:57:20.676Z,76.19
2018-08-24T00:58:20.636Z,76.19
2018-08-24T00:59:20.599Z,76.69
2018-08-24T01:00:20.608Z,76.69
2018-08-24T01:01:20.591Z,77.20
2018-08-24T01:02:20.556Z,77.90
2018-08-24T01:03:20.597Z,77.80
2018-08-24T01:04:20.543Z,77.94
2018-08-24T01:05:20.563Z,77.70
2018-08-24T01:06:20.594Z,77.20
2018-08-24T01:07:20.531Z,77.43
2018-08-24T01:08:20.489Z,77.29
2018-08-24T01:09:20.493Z,77.80
2018-08-24T01:10:20.526Z,77.59
2018-08-24T01:11:20.502Z,77.29
2018-08-24T01:12:20.454Z,77.70
2018-08-24T01:13:20.438Z,78.10
2018-08-24T01:14:20.430Z,77.33
2018-08-24T01:15:20.426Z,77.59
2018-08-24T01:16:20.435Z,78.20
2018-08-24T01:17:20.398Z,77.73
2018-08-24T01:18:20.380Z,77.39
2018-08-24T01:19:20.400Z,78.23
2018-08-24T01:20:20.371Z,78.00
2018-08-24T01:21:20.407Z,77.70
2018-08-24T01:22:20.341Z,78.03
2018-08-24T01:23:20.346Z,77.90
2018-08-24T01:24:20.318Z,78.14
2018-08-24T01:25:20.328Z,78.14
2018-08-24T01:26:20.324Z,77.94
2018-08-24T01:27:20.357Z,78.64
2018-08-24T01:28:20.273Z,78.44
2018-08-24T01:29:20.393Z,78.64
2018-08-24T01:30:20.282Z,80.45
2018-08-24T01:31:20.236Z,80.65
2018-08-24T01:32:20.238Z,82.06
2018-08-24T01:33:20.219Z,82.70
2018-08-24T01:34:21.007Z,83.91
2018-08-24T01:35:20.193Z,84.31
2018-08-24T01:36:20.215Z,83.95
2018-08-24T01:37:20.173Z,84.35
2018-08-24T01:38:20.194Z,84.80
2018-08-24T01:39:20.205Z,85.56
2018-08-24T01:40:20.172Z,85.86
2018-08-24T01:41:20.207Z,85.66
2018-08-24T01:42:20.121Z,85.66
2018-08-24T01:43:20.119Z,85.80
2018-08-24T01:44:20.093Z,86.00
2018-08-24T01:45:20.139Z,85.60
2018-08-24T01:46:20.096Z,85.90
2018-08-24T01:47:20.092Z,86.41
2018-08-24T01:48:20.056Z,86.41
2018-08-24T01:49:20.142Z,87.11
2018-08-24T01:50:20.074Z,87.21
2018-08-24T01:51:20.053Z,87.71
2018-08-24T01:52:20.048Z,87.71
2018-08-24T01:53:20.022Z,88.12
2018-08-24T01:54:20.004Z,88.42
2018-08-24T01:55:19.966Z,88.26
2018-08-24T01:56:20.059Z,88.52
2018-08-24T01:57:19.949Z,89.06
2018-08-24T01:58:19.933Z,89.17
2018-08-24T01:59:19.936Z,89.47
2018-08-24T02:00:19.958Z,88.46
2018-08-24T02:01:19.904Z,89.26
2018-08-24T02:02:19.917Z,89.17
2018-08-24T02:03:19.916Z,88.86
2018-08-24T02:04:19.912Z,89.06
2018-08-24T02:05:19.867Z,88.86
2018-08-24T02:06:19.872Z,89.37
2018-08-24T02:07:19.855Z,89.17
2018-08-24T02:08:19.850Z,89.06
2018-08-24T02:09:19.858Z,88.76
2018-08-24T02:10:19.804Z,88.86
2018-08-24T02:11:19.784Z,88.66
2018-08-24T02:12:19.810Z,89.37
2018-08-24T02:13:19.764Z,89.06
2018-08-24T02:14:19.804Z,88.56
2018-08-24T02:15:19.835Z,88.46
2018-08-24T02:16:19.773Z,88.96
2018-08-24T02:17:19.733Z,89.67
2018-08-24T02:18:19.789Z,89.57
2018-08-24T02:19:19.715Z,89.47
2018-08-24T02:20:19.680Z,89.57
2018-08-24T02:21:19.678Z,89.37
2018-08-24T02:22:19.662Z,89.37
2018-08-24T02:23:19.740Z,90.01
2018-08-24T02:24:19.666Z,89.97
2018-08-24T02:25:19.669Z,90.01
2018-08-24T02:26:19.691Z,89.61
2018-08-24T02:27:19.622Z,89.26
2018-08-24T02:28:19.662Z,89.91
2018-08-24T02:29:19.656Z,89.57
2018-08-24T02:30:19.608Z,89.37
2018-08-24T02:31:19.687Z,88.60
2018-08-24T02:32:19.565Z,90.01
2018-08-24T02:33:19.565Z,89.91
2018-08-24T02:34:19.610Z,89.81
2018-08-24T02:35:19.529Z,90.48
2018-08-24T02:36:19.518Z,90.17
2018-08-24T02:37:19.506Z,89.67
2018-08-24T02:38:19.546Z,89.31
2018-08-24T02:39:19.469Z,89.91
2018-08-24T02:40:19.483Z,89.77
2018-08-24T02:41:19.509Z,89.21
2018-08-24T02:42:19.541Z,90.01
2018-08-24T02:43:19.500Z,89.21
2018-08-24T02:44:19.439Z,89.61
2018-08-24T02:45:19.526Z,89.61
2018-08-24T02:46:19.404Z,90.11
2018-08-24T02:47:19.424Z,90.37
2018-08-24T02:48:19.409Z,90.48
2018-08-24T02:49:19.384Z,89.97
2018-08-24T02:50:19.357Z,89.81
2018-08-24T02:51:19.337Z,89.87
2018-08-24T02:52:19.316Z,90.01
2018-08-24T02:53:19.378Z,89.61
2018-08-24T02:54:19.317Z,89.21
2018-08-24T02:55:19.295Z,89.41
2018-08-24T02:56:19.265Z,89.41
2018-08-24T02:57:19.281Z,89.91
2018-08-24T02:58:19.325Z,88.90
2018-08-24T02:59:19.248Z,88.85
2018-08-24T03:00:19.296Z,89.61
2018-08-24T03:01:19.225Z,89.05
2018-08-24T03:02:19.302Z,88.60
2018-08-24T03:03:19.216Z,88.70
2018-08-24T03:04:19.200Z,89.91
2018-08-24T03:05:19.364Z,89.61
2018-08-24T03:06:19.164Z,88.70
2018-08-24T03:07:19.161Z,89.01
2018-08-24T03:08:19.269Z,88.50
2018-08-24T03:09:19.141Z,89.01
2018-08-24T03:10:19.131Z,88.90
2018-08-24T03:11:19.320Z,89.11
2018-08-24T03:12:19.157Z,88.81
2018-08-24T03:13:19.179Z,89.21
2018-08-24T03:14:19.239Z,89.61
2018-08-24T03:15:19.111Z,88.30
2018-08-24T03:16:19.183Z,88.65
2018-08-24T03:17:19.089Z,88.75
2018-08-24T03:18:19.094Z,89.35
2018-08-24T03:19:19.193Z,88.75
2018-08-24T03:20:19.075Z,88.54
2018-08-24T03:21:19.028Z,88.45
2018-08-24T03:22:19.088Z,88.45
2018-08-24T03:23:19.054Z,88.60
2018-08-24T03:24:19.015Z,89.05
2018-08-24T03:25:18.944Z,89.11
2018-08-24T03:26:18.930Z,88.95
2018-08-24T03:27:18.936Z,89.05
2018-08-24T03:28:18.963Z,88.81
2018-08-24T03:29:19.069Z,89.05
2018-08-24T03:30:19.621Z,88.95
2018-08-24T03:31:18.880Z,89.95
2018-08-24T03:32:19.141Z,89.55
2018-08-24T03:33:18.898Z,88.95
2018-08-24T03:34:18.888Z,89.86
2018-08-24T03:35:18.871Z,89.55
2018-08-24T03:36:18.945Z,89.45
2018-08-24T03:37:18.998Z,89.95
2018-08-24T03:38:19.067Z,88.95
2018-08-24T03:39:18.813Z,89.45
2018-08-24T03:40:18.845Z,89.86
2018-08-24T03:41:18.875Z,89.45
2018-08-24T03:42:18.752Z,88.95
2018-08-24T03:43:18.795Z,89.05
2018-08-24T03:44:18.757Z,88.95
2018-08-24T03:45:18.809Z,88.45
2018-08-24T03:46:18.833Z,89.45
2018-08-24T03:47:18.736Z,90.16
2018-08-24T03:48:18.698Z,89.86
2018-08-24T03:49:19.223Z,89.70
2018-08-24T03:50:18.783Z,89.70
2018-08-24T03:51:18.755Z,89.79
2018-08-24T03:52:18.839Z,89.65
2018-08-24T03:53:18.723Z,90.00
2018-08-24T03:54:18.728Z,90.10
2018-08-24T03:55:18.794Z,89.50
2018-08-24T03:56:18.736Z,89.50
2018-08-24T03:57:18.733Z,89.90
2018-08-24T03:58:18.676Z,89.39
2018-08-24T03:59:18.597Z,89.09
2018-08-24T04:00:18.577Z,89.50
2018-08-24T04:01:18.578Z,89.90
2018-08-24T04:02:18.677Z,89.70
2018-08-24T04:03:18.541Z,89.50
2018-08-24T04:04:18.708Z,89.39
2018-08-24T04:05:18.649Z,89.79
2018-08-24T04:06:18.607Z,89.09
2018-08-24T04:07:18.559Z,88.99
2018-08-24T04:08:18.652Z,89.29
2018-08-24T04:09:18.489Z,89.19
2018-08-24T04:11:51.865Z,87.98
2018-08-24T04:12:51.632Z,89.64
2018-08-24T04:16:31.975Z,89.03
2018-08-24T04:35:35.887Z,87.52
2018-08-24T04:37:32.974Z,87.32
2018-08-24T04:38:32.759Z,87.72
2018-08-24T04:39:37.334Z,87.66
2018-08-24T04:40:32.682Z,87.56
2018-08-24T04:41:32.663Z,87.05
2018-08-24T04:42:32.850Z,86.55
2018-08-24T04:43:32.550Z,87.46
2018-08-24T04:44:32.544Z,87.66
2018-08-24T04:45:32.609Z,87.36
2018-08-24T04:46:32.556Z,87.05
2018-08-24T04:47:32.552Z,86.75
2018-08-24T04:48:32.511Z,86.55
2018-08-24T04:49:32.573Z,86.75
2018-08-24T04:50:32.535Z,86.45
2018-08-24T04:51:32.552Z,86.95
2018-08-24T04:52:32.501Z,86.55
2018-08-24T04:53:32.533Z,86.95
2018-08-24T04:54:32.491Z,86.95
2018-08-24T04:55:32.497Z,86.55
2018-08-24T04:56:32.489Z,86.75
2018-08-24T04:57:32.593Z,86.75
2018-08-24T04:58:32.417Z,86.85
2018-08-24T04:59:32.393Z,86.65
2018-08-24T05:00:32.468Z,86.91
2018-08-24T05:01:32.475Z,86.75
2018-08-24T05:02:32.490Z,87.15
2018-08-24T05:03:32.555Z,86.25
2018-08-24T05:04:33.119Z,86.71
2018-08-24T05:05:32.541Z,86.75
2018-08-24T05:11:06.709Z,86.04
2018-08-24T05:12:06.872Z,85.94
2018-08-24T05:13:16.279Z,85.94
2018-08-24T05:14:06.171Z,86.55
2018-08-24T05:15:05.815Z,86.21
2018-08-24T05:16:06.023Z,86.25
2018-08-24T05:17:06.000Z,86.21
2018-08-24T05:18:05.970Z,85.84
2018-08-24T05:19:07.917Z,84.89
2018-08-24T05:20:05.767Z,85.80
2018-08-24T05:21:05.740Z,85.70
2018-08-24T05:22:05.774Z,85.70
2018-08-24T05:23:05.761Z,85.90
2018-08-24T05:24:05.713Z,86.21
2018-08-24T05:25:05.688Z,86.21
2018-08-24T05:26:05.721Z,85.80
2018-08-24T05:27:05.695Z,84.69
2018-08-24T05:28:05.862Z,85.19
2018-08-24T05:29:05.675Z,84.99
2018-08-24T05:30:05.806Z,85.10
2018-08-24T05:31:05.689Z,85.80
2018-08-24T05:32:05.623Z,85.80
2018-08-24T05:33:05.610Z,86.00
2018-08-24T05:34:05.599Z,86.30
2018-08-24T05:35:05.652Z,85.30
2018-08-24T05:36:05.597Z,84.59
2018-08-24T05:37:05.559Z,84.69
2018-08-24T05:38:05.650Z,84.79
2018-08-24T05:39:05.552Z,85.19
2018-08-24T05:40:05.574Z,84.79
2018-08-24T05:41:05.739Z,84.59
2018-08-24T05:43:36.081Z,85.19
2018-08-24T05:44:35.763Z,85.70
2018-08-24T05:45:37.616Z,85.80
2018-08-24T05:46:35.767Z,85.80
2018-08-24T05:49:05.307Z,85.19
2018-08-24T05:50:05.234Z,86.00
2018-08-24T05:52:16.314Z,85.60
2018-08-24T05:53:16.073Z,84.79
2018-08-24T05:54:16.020Z,85.10
2018-08-24T05:55:16.032Z,85.30
2018-08-24T05:56:15.928Z,84.69
2018-08-24T05:57:15.935Z,84.89
2018-08-24T05:58:15.879Z,85.10
2018-08-24T05:59:15.883Z,84.85
2018-08-24T06:00:15.960Z,84.95
2018-08-24T06:01:15.857Z,85.25
2018-08-24T06:02:15.831Z,84.99
2018-08-24T06:03:15.804Z,85.10
2018-08-24T06:04:15.873Z,84.85
2018-08-24T06:05:15.795Z,85.80
2018-08-24T06:06:15.771Z,85.76
2018-08-24T06:07:15.795Z,85.76
2018-08-24T06:08:15.748Z,86.07
2018-08-24T06:09:15.777Z,85.56
2018-08-24T06:10:15.740Z,85.56
2018-08-24T06:11:15.716Z,85.76
2018-08-24T06:12:15.755Z,86.36
2018-08-24T06:13:15.722Z,85.96
2018-08-24T06:14:15.727Z,85.56
2018-08-24T06:15:15.672Z,85.96
2018-08-24T06:16:15.801Z,85.96
2018-08-24T06:17:15.730Z,86.77
2018-08-24T06:20:00.827Z,85.96
2018-08-24T06:22:56.931Z,85.72
2018-08-24T06:23:56.387Z,85.66
2018-08-24T06:24:56.360Z,85.66
2018-08-24T06:25:56.343Z,85.86
2018-08-24T06:26:56.259Z,85.76
2018-08-24T06:27:56.224Z,84.85
2018-08-24T06:28:56.213Z,84.25
2018-08-24T06:29:56.181Z,84.45
2018-08-24T06:30:56.158Z,84.45
2018-08-24T06:31:56.180Z,83.74
2018-08-24T06:32:56.248Z,84.35
2018-08-24T06:33:56.160Z,84.31
2018-08-24T06:34:56.194Z,83.84
2018-08-24T06:35:56.131Z,83.95
2018-08-24T06:36:56.119Z,83.74
2018-08-24T06:37:56.084Z,84.35
2018-08-24T06:38:56.127Z,83.60
2018-08-24T06:39:56.068Z,84.31
2018-08-24T06:40:56.071Z,84.01
2018-08-24T06:41:56.178Z,83.91
2018-08-24T06:42:56.073Z,84.11
2018-08-24T06:43:56.055Z,84.11
2018-08-24T06:44:56.009Z,84.21
2018-08-24T06:45:56.001Z,83.40
2018-08-24T06:46:55.991Z,83.91
2018-08-24T06:47:55.972Z,83.70
2018-08-24T06:48:55.993Z,84.11
2018-08-24T06:49:56.162Z,83.40
2018-08-24T06:50:55.941Z,84.01
2018-08-24T06:51:55.932Z,83.60
2018-08-24T06:52:55.972Z,83.16
2018-08-24T06:53:55.994Z,84.31
2018-08-24T06:54:55.904Z,83.66
2018-08-24T06:55:56.069Z,82.86
2018-08-24T06:56:55.965Z,82.29
2018-08-24T06:57:55.983Z,82.76
2018-08-24T06:58:55.858Z,82.70
2018-08-24T06:59:55.845Z,82.76
2018-08-24T07:00:55.835Z,82.86
2018-08-24T07:01:55.856Z,82.45
2018-08-24T07:02:55.913Z,82.45
2018-08-24T07:03:55.809Z,83.06
2018-08-24T07:04:55.858Z,82.86
2018-08-24T07:05:56.099Z,82.45
2018-08-24T07:06:55.829Z,82.45
2018-08-24T07:07:55.823Z,81.95
2018-08-24T07:08:55.778Z,82.45
2018-08-24T07:09:55.732Z,82.65
2018-08-24T07:10:55.751Z,82.65
2018-08-24T07:11:55.757Z,82.76
2018-08-24T07:12:55.733Z,84.07
2018-08-24T07:13:55.717Z,82.86
2018-08-24T07:14:56.368Z,84.21
2018-08-24T07:15:55.680Z,83.80
2018-08-24T07:16:55.652Z,83.10
2018-08-24T07:17:55.675Z,84.21
2018-08-24T07:18:55.670Z,84.11
2018-08-24T07:19:55.657Z,84.81
2018-08-24T07:20:55.616Z,84.41
2018-08-24T07:21:55.597Z,84.31
2018-08-24T07:22:55.618Z,84.11
2018-08-24T07:23:55.565Z,83.91
2018-08-24T07:24:55.561Z,84.31
2018-08-24T07:25:55.583Z,84.51
2018-08-24T07:26:55.577Z,84.21
2018-08-24T07:27:55.562Z,83.60
2018-08-24T07:28:55.526Z,84.01
2018-08-24T07:29:55.597Z,84.55
2018-08-24T07:30:55.511Z,84.21
2018-08-24T07:31:55.482Z,84.21
2018-08-24T07:32:55.484Z,84.61
2018-08-24T07:33:55.493Z,85.11
2018-08-24T07:34:55.445Z,84.71
2018-08-24T07:35:55.466Z,84.41
2018-08-24T07:36:55.693Z,84.61
2018-08-24T07:37:55.495Z,84.61
2018-08-24T07:38:56.079Z,84.51
2018-08-24T07:39:55.437Z,84.61
2018-08-24T07:40:55.409Z,84.01
2018-08-24T07:41:55.477Z,84.31
2018-08-24T07:42:55.371Z,84.21
2018-08-24T07:43:55.360Z,84.11
2018-08-24T07:44:55.336Z,83.70
2018-08-24T07:45:55.383Z,84.01
2018-08-24T07:46:55.314Z,83.60
2018-08-24T07:47:55.331Z,84.21
2018-08-24T07:48:55.339Z,84.61
2018-08-24T07:49:55.283Z,84.01
2018-08-24T07:50:55.327Z,84.11
2018-08-24T07:51:55.263Z,84.31
2018-08-24T07:52:55.249Z,84.11
2018-08-24T07:53:55.265Z,82.90
2018-08-24T07:54:55.227Z,82.79
2018-08-24T07:55:55.217Z,82.50
2018-08-24T07:56:55.218Z,82.90
2018-08-24T07:57:55.298Z,82.90
2018-08-24T07:58:55.326Z,82.79
2018-08-24T07:59:56.077Z,81.89
2018-08-24T08:00:55.235Z,82.59
2018-08-24T08:01:55.188Z,82.70
2018-08-24T08:02:55.152Z,82.29
2018-08-24T08:03:55.209Z,82.90
2018-08-24T08:04:55.150Z,82.59
2018-08-24T08:05:55.161Z,82.90
2018-08-24T08:06:55.239Z,82.50
2018-08-24T08:07:55.089Z,83.91
2018-08-24T08:08:55.068Z,85.86
2018-08-24T08:09:55.067Z,86.91
2018-08-24T08:29:34.059Z,92.99
2018-08-24T08:38:17.891Z,93.24
2018-08-24T08:47:51.413Z,91.58
2018-08-24T08:48:53.017Z,90.78
2018-08-24T08:49:50.865Z,91.38
2018-08-24T08:50:51.173Z,91.99
2018-08-24T08:56:59.511Z,93.30
2018-08-24T09:06:55.597Z,91.24
2018-08-24T09:20:03.903Z,88.45
2018-08-24T09:20:52.827Z,88.75
2018-08-24T09:21:52.850Z,88.85
2018-08-24T09:22:52.699Z,87.64
2018-08-24T09:24:02.718Z,87.74
2018-08-24T09:26:04.828Z,89.56
2018-08-24T09:27:14.152Z,88.65
2018-08-24T09:28:04.786Z,86.53
2018-08-24T09:29:04.383Z,86.63
2018-08-24T09:30:04.271Z,87.74
2018-08-24T09:31:04.429Z,88.55
2018-08-24T09:32:04.189Z,88.04
2018-08-24T09:33:04.145Z,87.04
2018-08-24T09:35:35.274Z,89.62
2018-08-24T09:36:34.519Z,89.92
2018-08-24T09:37:34.496Z,88.51
2018-08-24T09:38:35.026Z,88.31
2018-08-24T09:39:34.377Z,90.03
2018-08-24T09:40:34.304Z,85.84
2018-08-24T09:41:34.374Z,84.97
2018-08-24T09:42:34.756Z,81.60
2018-08-24T09:43:34.429Z,85.03
2018-08-24T09:44:34.274Z,81.50
2018-08-24T09:45:34.311Z,81.80
2018-08-24T09:46:34.297Z,83.12
2018-08-24T09:47:34.329Z,80.59
2018-08-24T09:48:34.228Z,80.29
2018-08-24T09:49:34.252Z,79.88
2018-08-24T09:50:34.228Z,81.30
2018-08-24T09:51:34.320Z,78.88
2018-08-24T09:52:34.182Z,78.77
2018-08-24T09:53:34.194Z,81.60
2018-08-24T09:54:35.008Z,81.87
2018-08-24T09:55:34.277Z,80.96
2018-08-24T09:56:34.220Z,81.67
2018-08-24T09:57:34.659Z,80.82
2018-08-24T10:11:18.105Z,79.27
2018-08-24T10:12:17.153Z,77.35
2018-08-24T10:13:17.220Z,74.73
2018-08-24T10:14:17.640Z,73.52
2018-08-24T10:15:17.102Z,74.52
2018-08-24T10:16:17.085Z,76.24
2018-08-24T10:17:16.988Z,76.64
2018-08-24T10:18:17.157Z,76.24
2018-08-24T10:19:21.580Z,78.46
2018-08-24T10:20:17.007Z,77.04
2018-08-24T10:21:17.051Z,77.92
2018-08-24T10:22:17.686Z,74.52
2018-08-24T10:23:16.929Z,73.01
2018-08-24T10:24:16.944Z,71.20
2018-08-24T10:27:33.272Z,73.52
2018-08-24T10:28:32.906Z,74.63
2018-08-24T10:29:32.792Z,75.40
2018-08-24T10:30:32.762Z,75.30
2018-08-24T10:31:32.791Z,72.71
2018-08-24T10:32:32.748Z,71.17
2018-08-24T10:33:32.759Z,73.62
2018-08-24T10:34:32.644Z,72.67
2018-08-24T10:35:32.639Z,71.91
2018-08-24T10:36:32.645Z,68.27
2018-08-24T10:38:46.234Z,67.94
2018-08-24T10:39:45.775Z,68.04
2018-08-24T10:40:45.746Z,69.15
2018-08-24T10:41:45.669Z,68.21
2018-08-24T10:42:45.702Z,68.61
2018-08-24T10:43:45.718Z,71.80
2018-08-24T10:44:45.637Z,67.57
2018-08-24T10:45:52.629Z,66.43
2018-08-24T10:46:45.607Z,64.72
2018-08-24T10:47:49.822Z,66.91
2018-08-24T10:48:45.644Z,65.59
2018-08-24T10:49:45.625Z,64.66
2018-08-24T10:50:45.557Z,64.16
2018-08-24T10:51:45.588Z,63.76
2018-08-24T10:52:45.774Z,63.05
2018-08-24T10:53:45.528Z,61.44
2018-08-24T10:54:45.771Z,61.67
2018-08-24T10:55:45.665Z,61.07
2018-08-24T10:56:45.563Z,62.05
2018-08-24T10:57:45.543Z,63.15
2018-08-24T10:58:47.385Z,62.88
2018-08-24T10:59:45.467Z,61.57
2018-08-24T11:00:45.471Z,61.74
2018-08-24T11:01:45.441Z,60.13
2018-08-24T11:02:45.428Z,62.38
2018-08-24T11:03:45.437Z,61.14
2018-08-24T11:04:45.431Z,60.13
2018-08-24T11:05:45.570Z,63.15
2018-08-24T11:06:45.398Z,62.15
2018-08-24T11:07:45.412Z,61.21
2018-08-24T11:08:45.364Z,64.23
2018-08-24T11:09:45.348Z,62.29
2018-08-24T11:10:45.401Z,60.45
2018-08-24T11:11:45.466Z,59.05
2018-08-24T11:12:45.320Z,58.34
2018-08-24T11:13:45.314Z,61.83
2018-08-24T11:14:45.356Z,59.52
2018-08-24T11:15:45.306Z,58.42
2018-08-24T11:16:45.382Z,58.18
2018-08-24T11:17:45.285Z,58.69
2018-08-24T11:18:45.254Z,60.39
2018-08-24T11:19:45.245Z,57.39
2018-08-24T11:20:45.238Z,55.25
2018-08-24T11:21:45.327Z,54.27
2018-08-24T11:22:45.237Z,55.28
2018-08-24T11:23:45.202Z,54.38
2018-08-24T11:24:45.213Z,55.38
2018-08-24T11:25:45.189Z,54.40
2018-08-24T11:26:45.213Z,52.51
2018-08-24T11:27:45.161Z,53.82
2018-08-24T11:28:45.293Z,53.62
2018-08-24T11:29:45.263Z,53.62
2018-08-24T11:30:45.128Z,54.60
2018-08-24T11:31:45.127Z,53.97
2018-08-24T11:32:45.183Z,49.46
2018-08-24T11:33:45.200Z,48.96
2018-08-24T11:34:45.291Z,47.55
2018-08-24T11:35:45.115Z,47.65
2018-08-24T11:36:45.073Z,47.38
2018-08-24T11:37:45.060Z,48.58
2018-08-24T11:38:45.070Z,49.86
2018-08-24T11:39:45.038Z,47.35
2018-08-24T11:40:45.081Z,46.25
2018-08-24T11:41:45.149Z,47.35
2018-08-24T11:42:45.021Z,47.65
2018-08-24T11:43:45.036Z,48.13
2018-08-24T11:44:45.041Z,45.62
2018-08-24T11:45:45.169Z,46.53
2018-08-24T11:46:45.724Z,45.92
2018-08-24T11:47:45.132Z,45.70
2018-08-24T11:48:45.017Z,47.50
2018-08-24T11:49:45.027Z,45.78
2018-08-24T11:50:44.971Z,44.38
2018-08-24T11:51:46.577Z,45.48
2018-08-24T11:52:44.915Z,45.96
2018-08-24T11:53:45.846Z,48.04
2018-08-24T11:54:44.934Z,45.94
2018-08-24T11:55:44.885Z,45.04
2018-08-24T11:56:44.961Z,47.74
2018-08-24T11:57:44.865Z,44.51
2018-08-24T11:58:44.905Z,46.12
2018-08-24T11:59:44.872Z,46.81
2018-08-24T12:00:44.978Z,44.62
2018-08-24T12:01:44.947Z,43.49
2018-08-24T12:02:45.198Z,44.62
2018-08-24T12:03:45.590Z,43.99
2018-08-24T12:04:44.789Z,45.20
2018-08-24T12:05:44.796Z,43.07
2018-08-24T12:06:44.976Z,43.18
2018-08-24T12:07:45.428Z,43.59
2018-08-24T12:08:44.752Z,42.99
2018-08-24T12:21:54.131Z,40.01
2018-08-24T12:22:52.596Z,39.81
2018-08-24T12:23:52.634Z,41.41
2018-08-24T12:24:52.618Z,42.32
2018-08-24T12:25:52.621Z,43.62
2018-08-24T12:26:52.548Z,41.19
2018-08-24T12:27:53.418Z,40.69
2018-08-24T12:28:52.530Z,40.59
2018-08-24T12:29:52.500Z,40.99
2018-08-24T12:30:52.564Z,40.69
2018-08-24T12:31:52.541Z,40.30
2018-08-24T12:32:52.455Z,41.69
2018-08-24T12:35:04.636Z,41.67
2018-08-24T12:36:04.124Z,43.25
2018-08-24T12:37:04.165Z,44.45
2018-08-24T12:38:06.328Z,40.62
2018-08-24T12:39:04.018Z,39.82
2018-08-24T12:40:04.088Z,39.92
2018-08-24T12:41:05.308Z,40.81
2018-08-24T12:42:04.035Z,40.70
2018-08-24T12:43:03.979Z,39.20
2018-08-24T12:44:03.976Z,40.08
2018-08-24T12:45:04.856Z,40.58
2018-08-24T12:46:04.432Z,40.16
2018-08-24T12:47:03.940Z,39.64
2018-08-24T12:48:03.954Z,40.95
2018-08-24T12:49:03.967Z,40.06
2018-08-24T12:50:03.935Z,39.78
2018-08-24T12:51:03.892Z,39.80
2018-08-24T12:52:03.918Z,39.90
2018-08-24T12:53:03.947Z,39.80
2018-08-24T12:54:03.894Z,40.78
2018-08-24T12:55:03.866Z,39.38
2018-08-24T12:56:03.884Z,39.36
2018-08-24T12:57:03.843Z,38.37
2018-08-24T12:58:03.827Z,39.00
2018-08-24T12:59:03.817Z,40.22
2018-08-24T13:00:03.936Z,40.04
2018-08-24T13:01:03.801Z,39.56
2018-08-24T13:02:03.788Z,41.36
2018-08-24T13:03:03.811Z,40.37
2018-08-24T13:04:03.765Z,40.69
2018-08-24T13:05:03.984Z,42.10
2018-08-24T13:06:03.770Z,40.89
2018-08-24T13:07:04.027Z,39.87
2018-08-24T13:08:03.793Z,39.59
2018-08-24T13:09:03.717Z,39.09
2018-08-24T13:10:03.703Z,39.87
2018-08-24T13:11:03.727Z,39.18
2018-08-24T13:12:03.778Z,39.37
2018-08-24T13:13:03.685Z,38.06
2018-08-24T13:14:03.687Z,38.46
2018-08-24T13:15:03.720Z,39.06
2018-08-24T13:16:03.642Z,39.86
2018-08-24T13:17:03.649Z,37.36
2018-08-24T13:18:03.630Z,38.06
2018-08-24T13:19:03.613Z,37.16
2018-08-24T13:20:03.639Z,38.16
2018-08-24T13:21:03.718Z,36.26
2018-08-24T13:22:03.617Z,37.36
2018-08-24T13:23:03.595Z,37.36
2018-08-24T13:24:03.548Z,37.96
2018-08-24T13:25:03.574Z,37.26
2018-08-24T13:26:03.528Z,36.06
2018-08-24T13:27:03.571Z,36.28
2018-08-24T13:28:03.537Z,36.08
2018-08-24T13:29:03.514Z,36.98
2018-08-24T13:30:03.490Z,36.58
2018-08-24T13:31:03.643Z,37.66
2018-08-24T13:32:03.575Z,36.86
2018-08-24T13:33:03.497Z,36.66
2018-08-24T13:34:03.472Z,36.36
2018-08-24T13:35:03.461Z,36.56
2018-08-24T13:36:03.458Z,36.46
2018-08-24T13:37:03.413Z,37.36
2018-08-24T13:38:03.498Z,37.46
2018-08-24T13:39:03.464Z,37.56
2018-08-24T13:40:03.400Z,38.54
2018-08-24T13:41:03.453Z,37.44
2018-08-24T13:42:03.357Z,36.04
2018-08-24T13:43:03.358Z,36.15
2018-08-24T13:44:03.340Z,37.66
2018-08-24T13:45:03.429Z,37.36
2018-08-24T13:46:03.346Z,38.44
2018-08-24T13:47:03.494Z,37.06
2018-08-24T13:48:03.310Z,37.46
2018-08-24T13:49:03.342Z,36.16
2018-08-24T13:50:03.309Z,37.16
2018-08-24T13:51:03.348Z,38.26
2018-08-24T13:52:03.990Z,36.16
2018-08-24T13:53:03.272Z,35.94
2018-08-24T13:54:03.290Z,35.94
2018-08-24T13:55:03.301Z,37.44
2018-08-24T13:56:03.264Z,36.24
2018-08-24T13:57:03.262Z,36.36
2018-08-24T13:58:03.212Z,37.26
2018-08-24T13:59:03.921Z,36.88
2018-08-24T14:00:03.340Z,39.56
2018-08-24T14:01:03.161Z,37.36
2018-08-24T14:02:03.333Z,37.36
2018-08-24T14:03:03.162Z,37.46
2018-08-24T14:04:03.123Z,36.26
2018-08-24T14:05:03.132Z,35.96
2018-08-24T14:06:03.110Z,37.08
2018-08-24T14:07:03.134Z,35.96
2018-08-24T14:08:03.101Z,36.88
2018-08-24T14:09:03.181Z,36.88
2018-08-24T14:10:03.097Z,35.80
2018-08-24T14:11:03.061Z,36.60
2018-08-24T14:12:03.071Z,36.90
2018-08-24T14:13:03.072Z,36.49
2018-08-24T14:14:03.032Z,35.99
2018-08-24T14:15:03.028Z,36.69
2018-08-24T14:16:03.018Z,37.70
2018-08-24T14:17:03.029Z,37.40
2018-08-24T14:18:02.975Z,37.10
2018-08-24T14:19:03.000Z,37.40
2018-08-24T14:20:03.000Z,36.10
2018-08-24T14:21:03.025Z,37.31
2018-08-24T14:22:02.997Z,37.19
2018-08-24T14:23:02.927Z,36.79
2018-08-24T14:24:02.907Z,36.69
2018-08-24T14:25:05.058Z,37.29
2018-08-24T14:26:02.901Z,36.99
2018-08-24T14:27:02.871Z,38.59
2018-08-24T14:28:02.890Z,37.79
2018-08-24T14:29:02.866Z,38.79
2018-08-24T14:30:02.953Z,38.09
2018-08-24T14:31:02.839Z,38.70
2018-08-24T14:32:02.822Z,38.49
2018-08-24T14:33:02.807Z,38.09
2018-08-24T14:34:02.822Z,37.81
2018-08-24T14:35:02.789Z,39.59
2018-08-24T14:36:02.833Z,38.81
2018-08-24T14:37:02.840Z,39.11
2018-08-24T14:38:02.750Z,38.51
2018-08-24T14:39:02.744Z,38.01
2018-08-24T14:40:02.731Z,37.23
2018-08-24T14:41:02.726Z,37.73
2018-08-24T14:42:02.781Z,37.13
2018-08-24T14:43:02.722Z,36.75
2018-08-24T14:44:02.689Z,38.55
2018-08-24T14:45:02.686Z,37.95
2018-08-24T14:46:02.679Z,37.75
2018-08-24T14:47:02.683Z,38.17
2018-08-24T14:48:02.662Z,38.37
2018-08-24T14:49:02.709Z,39.47
2018-08-24T14:50:02.652Z,40.27
2018-08-24T14:51:02.639Z,39.77
2018-08-24T14:52:02.601Z,38.57
2018-08-24T14:53:02.970Z,39.37
2018-08-24T14:54:02.585Z,39.59
2018-08-24T14:55:02.577Z,39.79
2018-08-24T14:56:02.577Z,39.89
2018-08-24T14:57:02.551Z,40.49
2018-08-24T14:58:02.550Z,39.99
2018-08-24T14:59:02.525Z,39.91
2018-08-24T15:00:02.523Z,40.11
2018-08-24T15:01:02.542Z,40.31